Time;durP1;ratioP1;P1;durP2;ratioP2;P2;SDS_P1;SDS_P2;PMS_P1;PMS_P2;Temp;Humidity;BMP_temperature;BMP_pressure;BME280_temperature;BME280_humidity;BME280_pressure;Samples;Min_cycle;Max_cycle;Signal;HPM_P1;HPM_P2
2023/06/02 00:01:23;;;;;;;8.20;6.07;;;;;;;15.60;100.00;96077.16;5012852;28;103110;-60
2023/06/02 00:03:53;;;;;;;9.00;6.03;;;;;;;15.40;100.00;96080.09;5017182;28;101987;-60
2023/06/02 00:06:20;;;;;;;8.80;6.20;;;;;;;15.29;100.00;96079.41;5011530;28;105273;-60
2023/06/02 00:08:47;;;;;;;6.10;5.50;;;;;;;15.23;100.00;96080.56;5013757;28;101751;-60
2023/06/02 00:11:16;;;;;;;6.00;5.50;;;;;;;15.14;100.00;96076.09;5013317;28;102899;-60
2023/06/02 00:13:43;;;;;;;7.27;5.97;;;;;;;15.16;100.00;96082.00;5012274;28;102626;-60
2023/06/02 00:16:12;;;;;;;6.27;5.73;;;;;;;15.10;100.00;96075.88;5013653;28;101811;-60
2023/06/02 00:18:39;;;;;;;6.83;6.00;;;;;;;14.93;100.00;96077.44;5013660;28;101701;-60
2023/06/02 00:21:08;;;;;;;7.50;6.17;;;;;;;14.75;100.00;96080.81;5011243;28;104218;-60
2023/06/02 00:23:35;;;;;;;6.83;5.83;;;;;;;14.65;100.00;96072.91;5016850;28;102145;-60
2023/06/02 00:26:03;;;;;;;6.67;5.60;;;;;;;14.75;100.00;96070.13;5012503;28;101819;-60
2023/06/02 00:28:32;;;;;;;7.13;5.97;;;;;;;14.82;100.00;96070.59;5011511;28;101976;-60
2023/06/02 00:30:59;;;;;;;6.97;6.30;;;;;;;14.51;100.00;96066.63;5011603;28;105257;-60
2023/06/02 00:33:26;;;;;;;9.73;5.90;;;;;;;14.52;100.00;96078.94;5012633;28;103096;-60
2023/06/02 00:35:54;;;;;;;6.27;5.77;;;;;;;14.44;100.00;96068.84;5012989;28;101967;-60
2023/06/02 00:38:21;;;;;;;6.30;5.70;;;;;;;14.42;100.00;96079.00;5011962;28;105652;-60
2023/06/02 00:40:48;;;;;;;6.43;5.70;;;;;;;14.52;100.00;96076.25;5010898;28;105842;-60
2023/06/02 00:43:16;;;;;;;6.30;5.80;;;;;;;14.30;100.00;96070.56;5011520;28;101891;-60
2023/06/02 00:45:44;;;;;;;8.73;5.97;;;;;;;14.29;100.00;96077.78;5014391;28;105234;-60
2023/06/02 00:48:11;;;;;;;7.90;6.30;;;;;;;14.44;100.00;96072.31;5013290;28;102171;-60
2023/06/02 00:50:39;;;;;;;6.43;5.77;;;;;;;14.27;100.00;96073.78;5011666;28;105624;-60
2023/06/02 00:53:06;;;;;;;7.97;6.87;;;;;;;14.26;100.00;96080.22;5011941;28;102857;-60
2023/06/02 00:55:33;;;;;;;8.10;6.13;;;;;;;14.18;100.00;96080.81;5011749;28;101891;-60
2023/06/02 00:58:03;;;;;;;8.13;7.33;;;;;;;14.27;100.00;96074.59;5012757;28;102973;-60
2023/06/02 01:00:33;;;;;;;7.67;6.87;;;;;;;14.13;100.00;96083.53;5011879;28;103538;-60
2023/06/02 01:03:02;;;;;;;9.77;7.53;;;;;;;14.27;100.00;96079.13;5011356;28;101865;-60
2023/06/02 01:05:30;;;;;;;9.30;6.90;;;;;;;14.29;100.00;96079.69;5012301;28;102329;-60
2023/06/02 01:08:02;;;;;;;7.73;6.87;;;;;;;14.24;100.00;96079.72;5015489;28;102519;-60
2023/06/02 01:10:31;;;;;;;7.33;6.43;;;;;;;14.26;100.00;96077.56;5012818;28;102896;-60
2023/06/02 01:12:59;;;;;;;6.87;6.17;;;;;;;14.29;100.00;96071.66;5012061;28;102501;-60
2023/06/02 01:15:26;;;;;;;9.33;6.83;;;;;;;14.34;100.00;96074.28;5010566;28;101941;-60
2023/06/02 01:17:55;;;;;;;8.67;6.40;;;;;;;14.36;100.00;96070.25;5011367;28;105897;-60
2023/06/02 01:20:24;;;;;;;8.20;7.27;;;;;;;14.36;100.00;96064.91;5011614;28;102627;-60
2023/06/02 01:22:58;;;;;;;6.67;6.07;;;;;;;14.35;100.00;96066.00;5012306;28;101829;-60
2023/06/02 01:25:32;;;;;;;6.87;6.13;;;;;;;14.26;100.00;96065.00;5010778;28;105538;-60
2023/06/02 01:27:59;;;;;;;6.80;6.10;;;;;;;14.07;100.00;96071.28;5010193;28;105822;-60
2023/06/02 01:30:27;;;;;;;6.80;6.10;;;;;;;13.95;100.00;96076.19;5014281;28;101919;-60
2023/06/02 01:33:03;;;;;;;7.13;6.43;;;;;;;14.07;100.00;96068.59;5010280;28;105361;-60
2023/06/02 01:35:36;;;;;;;7.10;6.30;;;;;;;14.15;100.00;96070.66;5012042;28;102004;-60
2023/06/02 01:38:03;;;;;;;7.00;6.30;;;;;;;13.91;100.00;96072.47;5010721;28;103624;-60
2023/06/02 01:40:32;;;;;;;7.27;6.47;;;;;;;13.97;100.00;96068.66;5010421;28;105462;-60
2023/06/02 01:43:01;;;;;;;9.47;7.70;;;;;;;14.04;100.00;96063.78;5010870;28;101799;-60
2023/06/02 01:45:30;;;;;;;7.13;6.43;;;;;;;14.12;100.00;96065.88;5010930;28;105784;-60
2023/06/02 01:48:04;;;;;;;6.93;6.33;;;;;;;14.11;100.00;96065.06;5009682;28;104232;-60
2023/06/02 01:50:32;;;;;;;7.97;6.70;;;;;;;14.13;100.00;96062.13;5012185;28;102049;-60
2023/06/02 01:52:59;;;;;;;8.13;6.50;;;;;;;14.16;100.00;96067.72;5013311;28;105159;-60
2023/06/02 01:55:26;;;;;;;7.40;6.70;;;;;;;14.12;100.00;96057.88;5010457;28;101996;-60
2023/06/02 01:57:55;;;;;;;7.83;6.37;;;;;;;13.80;100.00;96060.25;5010579;28;104940;-60
2023/06/02 02:00:22;;;;;;;7.00;6.30;;;;;;;13.85;100.00;96058.31;5009553;28;105171;-60
2023/06/02 02:02:52;;;;;;;7.70;6.90;;;;;;;13.89;100.00;96061.25;5012044;28;101937;-60
2023/06/02 02:05:22;;;;;;;7.43;6.70;;;;;;;13.86;100.00;96061.81;5011622;28;102136;-60
2023/06/02 02:07:52;;;;;;;7.83;6.80;;;;;;;13.55;100.00;96055.06;5008311;28;102335;-60
2023/06/02 02:10:22;;;;;;;7.93;6.37;;;;;;;13.57;100.00;96060.94;5008578;28;101829;-60
2023/06/02 02:12:51;;;;;;;7.30;6.33;;;;;;;13.40;100.00;96053.28;5011674;28;102202;-60
2023/06/02 02:15:20;;;;;;;7.07;6.37;;;;;;;13.10;100.00;96060.63;5012680;28;101962;-60
2023/06/02 02:17:47;;;;;;;7.03;6.43;;;;;;;12.92;100.00;96069.22;5010494;28;105569;-60
2023/06/02 02:20:17;;;;;;;7.40;6.63;;;;;;;12.83;100.00;96065.50;5008518;28;105507;-60
2023/06/02 02:22:45;;;;;;;7.67;6.93;;;;;;;12.98;100.00;96060.16;5011657;28;102224;-60
2023/06/02 02:25:12;;;;;;;8.37;6.87;;;;;;;13.02;100.00;96062.00;5011563;28;102290;-60
2023/06/02 02:27:39;;;;;;;7.43;6.73;;;;;;;13.15;100.00;96055.28;5009185;28;105876;-60
2023/06/02 02:30:08;;;;;;;8.67;7.73;;;;;;;13.13;100.00;96073.44;5009963;28;101913;-60
2023/06/02 02:32:39;;;;;;;9.40;8.00;;;;;;;12.96;100.00;96081.78;5010047;28;103969;-60
2023/06/02 02:35:07;;;;;;;8.20;7.40;;;;;;;13.09;100.00;96069.72;5013735;28;102665;-60
2023/06/02 02:37:36;;;;;;;7.83;7.13;;;;;;;13.06;100.00;96067.59;5009954;28;105389;-60
2023/06/02 02:40:05;;;;;;;9.23;7.00;;;;;;;13.08;100.00;96057.47;5009263;28;104907;-60
2023/06/02 02:42:33;;;;;;;8.93;8.03;;;;;;;13.23;100.00;96062.69;5011067;28;101808;-60
2023/06/02 02:45:02;;;;;;;8.40;7.10;;;;;;;13.37;100.00;96058.38;5009531;28;105026;-60
2023/06/02 02:47:29;;;;;;;9.17;7.50;;;;;;;13.54;100.00;96058.81;5009147;28;105327;-60
2023/06/02 02:49:57;;;;;;;9.70;7.40;;;;;;;13.50;100.00;96058.56;5009605;28;101956;-60
2023/06/02 02:52:25;;;;;;;7.80;7.07;;;;;;;13.51;100.00;96060.16;5009354;28;102545;-60
2023/06/02 02:54:51;;;;;;;8.30;7.03;;;;;;;13.53;100.00;96058.00;5010365;28;102736;-60
2023/06/02 02:57:19;;;;;;;8.70;7.50;;;;;;;13.51;100.00;96048.69;5012965;28;102073;-60
2023/06/02 02:59:46;;;;;;;8.00;7.20;;;;;;;13.54;100.00;96061.47;5010375;28;103039;-60
2023/06/02 03:02:13;;;;;;;9.67;7.50;;;;;;;13.55;100.00;96060.41;5009529;28;102300;-60
2023/06/02 03:04:43;;;;;;;9.27;7.33;;;;;;;13.57;100.00;96063.59;5009162;28;105331;-60
2023/06/02 03:07:12;;;;;;;8.00;7.20;;;;;;;13.62;100.00;96061.69;5008788;28;105031;-60
2023/06/02 03:09:39;;;;;;;7.70;6.90;;;;;;;13.65;100.00;96055.00;5009504;28;101894;-60
2023/06/02 03:12:06;;;;;;;8.67;7.40;;;;;;;13.52;100.00;96053.72;5009518;28;104500;-60
2023/06/02 03:14:34;;;;;;;7.57;6.60;;;;;;;13.49;100.00;96053.50;5008399;28;105189;-60
2023/06/02 03:17:05;;;;;;;7.50;6.77;;;;;;;13.35;100.00;96055.19;5009300;28;101930;-60
2023/06/02 03:19:34;;;;;;;7.53;6.73;;;;;;;13.33;100.00;96054.66;5011904;28;105246;-60
2023/06/02 03:22:03;;;;;;;7.83;7.03;;;;;;;13.42;100.00;96063.69;5009146;28;101904;-60
2023/06/02 03:24:33;;;;;;;9.20;7.27;;;;;;;13.50;100.00;96065.75;5008968;28;103969;-60
2023/06/02 03:27:03;;;;;;;8.07;7.13;;;;;;;13.40;100.00;96063.97;5008311;28;105305;-60
2023/06/02 03:29:31;;;;;;;7.03;6.37;;;;;;;13.45;100.00;96061.25;5008959;28;102072;-60
2023/06/02 03:31:58;;;;;;;8.77;7.50;;;;;;;13.53;100.00;96065.22;5009272;28;102703;-60
2023/06/02 03:34:29;;;;;;;8.00;7.17;;;;;;;13.56;100.00;96068.13;5008249;28;105777;-60
2023/06/02 03:37:01;;;;;;;7.93;7.17;;;;;;;13.60;100.00;96068.38;5008996;28;101836;-60
2023/06/02 03:39:29;;;;;;;7.60;6.33;;;;;;;13.62;100.00;96060.91;5008685;28;105308;-60
2023/06/02 03:41:57;;;;;;;8.63;6.97;;;;;;;13.60;100.00;96063.03;5011905;28;105595;-60
2023/06/02 03:44:25;;;;;;;7.13;6.43;;;;;;;13.59;100.00;96061.44;5008989;28;105493;-60
2023/06/02 03:46:52;;;;;;;7.77;7.07;;;;;;;13.56;100.00;96059.31;5008036;28;105400;-60
2023/06/02 03:49:20;;;;;;;7.67;6.93;;;;;;;13.29;100.00;96066.94;5008576;28;101886;-60
2023/06/02 03:51:47;;;;;;;12.43;7.70;;;;;;;13.40;100.00;96061.28;5008912;28;105343;-60
2023/06/02 03:54:14;;;;;;;7.57;6.77;;;;;;;13.49;100.00;96067.66;5008216;28;105765;-60
2023/06/02 03:56:42;;;;;;;7.83;7.13;;;;;;;13.59;100.00;96077.47;5008807;28;102347;-60
2023/06/02 03:59:10;;;;;;;8.37;7.50;;;;;;;13.61;100.00;96069.97;4992226;28;105341;-60
2023/06/02 04:01:39;;;;;;;7.27;6.57;;;;;;;13.76;100.00;96080.56;5007542;28;105394;-60
2023/06/02 04:04:06;;;;;;;8.63;7.73;;;;;;;13.88;100.00;96071.13;5011816;28;102078;-60
2023/06/02 04:06:33;;;;;;;7.73;7.03;;;;;;;13.95;100.00;96068.16;5007790;28;105661;-60
2023/06/02 04:09:00;;;;;;;7.73;7.03;;;;;;;14.01;100.00;96059.03;5008881;28;101817;-60
2023/06/02 04:11:27;;;;;;;9.97;7.00;;;;;;;14.11;100.00;96064.28;5008720;28;105461;-60
2023/06/02 04:13:55;;;;;;;7.50;6.73;;;;;;;14.21;100.00;96065.03;5007437;28;104990;-60
2023/06/02 04:16:26;;;;;;;8.37;7.20;;;;;;;14.26;100.00;96073.00;5008295;28;101855;-60
2023/06/02 04:18:53;;;;;;;9.00;6.67;;;;;;;14.38;100.00;96069.97;5008672;28;105001;-60
2023/06/02 04:21:20;;;;;;;7.60;6.80;;;;;;;14.48;100.00;96072.53;5007934;28;105088;-60
2023/06/02 04:23:48;;;;;;;8.20;7.40;;;;;;;14.54;100.00;96063.38;5011711;28;101983;-60
2023/06/02 04:26:15;;;;;;;8.63;7.17;;;;;;;14.63;100.00;96057.16;5007605;28;105038;-60
2023/06/02 04:28:42;;;;;;;8.03;6.40;;;;;;;14.73;100.00;96061.59;5008057;28;102008;-60
2023/06/02 04:31:11;;;;;;;10.13;6.97;;;;;;;14.88;100.00;96070.25;4995231;28;104058;-60
2023/06/02 04:33:44;;;;;;;9.23;7.07;;;;;;;14.95;100.00;96064.56;4987866;28;105393;-60
2023/06/02 04:36:12;;;;;;;7.00;6.30;;;;;;;15.09;100.00;96068.16;4988301;28;102185;-60
2023/06/02 04:38:45;;;;;;;7.23;6.27;;;;;;;15.20;100.00;96072.31;4988386;28;105355;-60
2023/06/02 04:41:12;;;;;;;8.17;6.70;;;;;;;15.30;100.00;96074.84;4987820;28;105488;-60
2023/06/02 04:43:41;;;;;;;8.40;6.40;;;;;;;15.39;100.00;96075.84;4990445;28;101945;-60
2023/06/02 04:46:10;;;;;;;6.97;6.23;;;;;;;15.46;100.00;96073.59;4993910;28;104739;-60
2023/06/02 04:48:39;;;;;;;9.13;6.67;;;;;;;15.60;100.00;96077.16;4991738;28;101835;-60
2023/06/02 04:51:09;;;;;;;9.07;6.13;;;;;;;15.60;100.00;96082.53;4991735;28;105449;-60
2023/06/02 04:53:38;;;;;;;7.33;6.20;;;;;;;15.76;100.00;96075.88;4990988;28;105390;-60
2023/06/02 04:56:06;;;;;;;6.77;6.07;;;;;;;15.89;100.00;96085.84;4974995;28;101954;-60
2023/06/02 04:58:34;;;;;;;7.80;6.53;;;;;;;15.91;100.00;96083.69;4991488;28;103913;-60
2023/06/02 05:01:03;;;;;;;8.43;6.17;;;;;;;16.11;100.00;96084.19;4990682;28;105190;-60
2023/06/02 05:03:30;;;;;;;8.00;6.13;;;;;;;16.10;100.00;96082.59;4991502;28;102632;-60
2023/06/02 05:05:57;;;;;;;7.67;6.33;;;;;;;16.29;100.00;96087.94;4991224;28;104852;-60
2023/06/02 05:08:26;;;;;;;7.77;5.80;;;;;;;16.40;100.00;96090.16;4994174;28;104982;-60
2023/06/02 05:10:53;;;;;;;7.20;6.50;;;;;;;16.46;100.00;96088.22;4992509;28;102914;-60
2023/06/02 05:13:21;;;;;;;9.20;5.90;;;;;;;16.53;100.00;96085.94;4990123;28;105251;-60
2023/06/02 05:15:49;;;;;;;8.10;6.50;;;;;;;16.41;100.00;96082.91;4991260;28;102434;-60
2023/06/02 05:18:17;;;;;;;7.07;6.07;;;;;;;16.58;100.00;96093.91;4991220;28;104224;-60
2023/06/02 05:20:45;;;;;;;7.67;6.50;;;;;;;16.67;100.00;96086.78;4990837;28;105163;-60
2023/06/02 05:23:12;;;;;;;7.53;6.13;;;;;;;16.85;100.00;96085.91;4991187;28;101880;-60
2023/06/02 05:25:41;;;;;;;11.13;6.63;;;;;;;16.92;100.00;96086.28;4990995;28;105439;-60
2023/06/02 05:28:08;;;;;;;6.67;5.97;;;;;;;16.92;100.00;96088.97;4991558;28;103032;-60
2023/06/02 05:30:36;;;;;;;6.43;5.83;;;;;;;17.05;100.00;96088.22;4993737;28;101897;-60
2023/06/02 05:33:03;;;;;;;7.90;6.10;;;;;;;17.11;100.00;96087.03;4990437;28;104813;-60
2023/06/02 05:35:31;;;;;;;9.17;6.60;;;;;;;16.99;100.00;96082.13;4990738;28;101967;-60
2023/06/02 05:37:57;;;;;;;7.43;6.13;;;;;;;17.04;100.00;96091.97;4990939;28;105293;-60
2023/06/02 05:40:24;;;;;;;6.60;5.90;;;;;;;17.11;100.00;96093.16;4990131;28;105104;-60
2023/06/02 05:42:54;;;;;;;6.50;5.57;;;;;;;17.06;100.00;96095.19;4990648;28;101844;-60
2023/06/02 05:45:21;;;;;;;6.20;5.60;;;;;;;16.96;100.00;96095.34;4990856;28;105476;-60
2023/06/02 05:47:50;;;;;;;6.83;5.30;;;;;;;17.11;100.00;96097.78;4990036;28;105448;-60
2023/06/02 05:50:19;;;;;;;7.17;5.83;;;;;;;17.36;100.00;96094.56;4990474;28;102068;-60
2023/06/02 05:52:46;;;;;;;7.20;6.23;;;;;;;17.35;100.00;96099.16;4993360;28;105314;-60
2023/06/02 05:55:13;;;;;;;8.80;5.97;;;;;;;17.41;100.00;96105.25;4989815;28;102003;-60
2023/06/02 05:57:41;;;;;;;6.73;5.83;;;;;;;17.54;100.00;96102.53;4990418;28;105517;-60
2023/06/02 06:00:12;;;;;;;7.47;6.03;;;;;;;17.54;100.00;96107.16;4989574;28;105152;-60
2023/06/02 06:02:47;;;;;;;6.57;5.90;;;;;;;17.70;100.00;96101.13;4990472;28;101832;-60
2023/06/02 06:05:20;;;;;;;6.73;5.63;;;;;;;17.51;100.00;96102.34;4990353;28;104792;-60
2023/06/02 06:07:49;;;;;;;13.17;6.20;;;;;;;17.49;100.00;96102.66;4989878;28;105360;-60
2023/06/02 06:10:16;;;;;;;8.93;5.70;;;;;;;17.62;100.00;96109.13;4990344;28;101974;-60
2023/06/02 06:12:44;;;;;;;8.37;5.40;;;;;;;17.79;100.00;96099.31;4990111;28;104852;-60
2023/06/02 06:15:13;;;;;;;6.87;5.67;;;;;;;18.09;100.00;96101.31;4994049;28;103091;-60
2023/06/02 06:17:50;;;;;;;8.37;5.63;;;;;;;18.26;100.00;96097.97;4990456;28;105068;-60
2023/06/02 06:20:17;;;;;;;7.33;5.57;;;;;;;18.28;100.00;96101.97;4989332;28;105431;-60
2023/06/02 06:22:44;;;;;;;6.00;5.50;;;;;;;18.38;100.00;96106.34;4991412;28;102601;-60
2023/06/02 06:25:13;;;;;;;7.30;5.53;;;;;;;18.27;100.00;96110.34;4990174;28;105241;-60
2023/06/02 06:27:41;;;;;;;6.40;5.80;;;;;;;18.41;100.00;96109.22;4989274;28;105432;-60
2023/06/02 06:30:09;;;;;;;6.90;5.87;;;;;;;18.53;100.00;96116.75;4990126;28;102118;-60
2023/06/02 06:32:38;;;;;;;9.70;6.10;;;;;;;18.63;100.00;96111.13;4989997;28;105544;-60
2023/06/02 06:35:06;;;;;;;6.13;5.60;;;;;;;18.91;100.00;96110.63;4992715;28;105699;-60
2023/06/02 06:37:34;;;;;;;5.67;5.07;;;;;;;19.12;100.00;96116.31;4989850;28;105435;-60
2023/06/02 06:40:01;;;;;;;9.37;5.40;;;;;;;19.08;100.00;96115.31;4988527;28;105099;-60
2023/06/02 06:42:28;;;;;;;6.50;5.47;;;;;;;18.76;100.00;96121.81;4990676;28;101869;-60
2023/06/02 06:45:02;;;;;;;6.20;5.60;;;;;;;19.18;100.00;96117.75;4989603;28;105106;-60
2023/06/02 06:47:30;;;;;;;6.43;5.30;;;;;;;19.31;100.00;96122.25;4989173;28;105242;-60
2023/06/02 06:49:58;;;;;;;7.07;5.87;;;;;;;19.47;100.00;96118.84;4990795;28;101923;-60
2023/06/02 06:52:25;;;;;;;5.67;5.17;;;;;;;19.46;100.00;96121.84;4989657;28;105145;-60
2023/06/02 06:54:52;;;;;;;7.63;5.80;;;;;;;19.58;100.00;96124.75;4990656;28;102591;-60
2023/06/02 06:57:19;;;;;;;7.97;5.90;;;;;;;19.24;100.00;96119.22;4994299;28;101850;-60
2023/06/02 06:59:47;;;;;;;7.80;5.40;;;;;;;19.68;100.00;96117.13;4990335;28;102733;-60
2023/06/02 07:02:14;;;;;;;7.53;5.40;;;;;;;19.94;100.00;96111.81;4990531;28;101820;-60
2023/06/02 07:04:41;;;;;;;6.13;5.50;;;;;;;19.95;100.00;96119.56;4990863;28;102828;-60
2023/06/02 07:07:12;;;;;;;5.90;5.07;;;;;;;20.15;100.00;96123.59;4990096;28;103166;-60
2023/06/02 07:09:39;;;;;;;5.63;5.13;;;;;;;20.29;100.00;96129.66;4990718;28;101693;-60
2023/06/02 07:12:07;;;;;;;5.70;5.20;;;;;;;20.08;100.00;96125.97;4990853;28;102325;-60
2023/06/02 07:14:34;;;;;;;6.73;5.30;;;;;;;20.14;100.00;96122.81;4988481;28;104270;-60
2023/06/02 07:17:01;;;;;;;6.57;5.10;;;;;;;20.30;100.00;96120.44;4999772;28;101993;-60
2023/06/02 07:19:28;;;;;;;6.30;5.13;;;;;;;20.89;100.00;96123.09;5013105;28;102427;-60
2023/06/02 07:21:54;;;;;;;5.73;5.00;;;;;;;20.71;100.00;96123.44;5008717;28;102186;-60
2023/06/02 07:24:23;;;;;;;5.27;4.77;;;;;;;20.69;100.00;96120.22;5008780;28;105073;-60
2023/06/02 07:26:50;;;;;;;5.57;4.93;;;;;;;20.80;100.00;96130.41;5008114;28;105201;-60
2023/06/02 07:29:17;;;;;;;7.40;5.30;;;;;;;20.88;100.00;96132.28;5009644;28;101942;-60
2023/06/02 07:31:44;;;;;;;5.17;4.67;;;;;;;21.04;100.00;96124.50;5008694;28;105414;-60
2023/06/02 07:34:11;;;;;;;6.33;5.00;;;;;;;20.78;100.00;96135.34;5007873;28;105168;-60
2023/06/02 07:36:38;;;;;;;6.80;5.50;;;;;;;20.77;100.00;96131.03;5008463;28;101886;-61
2023/06/02 07:39:05;;;;;;;5.40;4.87;;;;;;;21.14;100.00;96126.84;5008619;28;105519;-61
2023/06/02 07:41:34;;;;;;;6.90;4.83;;;;;;;20.91;100.00;96130.88;5012013;28;102579;-60
2023/06/02 07:44:01;;;;;;;5.60;5.07;;;;;;;21.02;100.00;96132.13;5008783;28;104829;-60
2023/06/02 07:46:27;;;;;;;7.03;5.33;;;;;;;21.49;100.00;96131.00;5007773;28;105115;-61
2023/06/02 07:48:54;;;;;;;6.30;5.13;;;;;;;21.79;100.00;96130.72;5008680;28;101808;-61
2023/06/02 07:51:21;;;;;;;4.63;4.23;;;;;;;22.19;100.00;96125.69;5008486;28;105462;-60
2023/06/02 07:53:48;;;;;;;5.47;4.90;;;;;;;21.49;100.00;96131.00;5008919;28;102805;-61
2023/06/02 07:56:16;;;;;;;6.13;4.70;;;;;;;21.50;100.00;96121.78;5008134;28;102227;-60
2023/06/02 07:58:45;;;;;;;4.93;4.43;;;;;;;22.01;100.00;96126.94;5009625;28;103004;-60
2023/06/02 08:01:13;;;;;;;5.57;4.60;;;;;;;22.38;100.00;96126.00;5006952;28;106035;-60
2023/06/02 08:03:40;;;;;;;7.03;4.97;;;;;;;22.45;100.00;96116.25;5011384;28;102098;-60
2023/06/02 08:06:07;;;;;;;7.03;5.50;;;;;;;21.94;100.00;96118.53;5007092;28;104163;-61
2023/06/02 08:08:34;;;;;;;6.93;4.57;;;;;;;21.71;100.00;96117.25;5007939;28;102059;-60
2023/06/02 08:11:01;;;;;;;6.57;4.57;;;;;;;21.74;100.00;96122.00;5008351;28;105521;-60
2023/06/02 08:13:29;;;;;;;5.67;4.83;;;;;;;22.08;100.00;96114.44;5007316;28;104147;-60
2023/06/02 08:15:59;;;;;;;6.43;5.07;;;;;;;22.67;100.00;96117.84;5007815;28;101803;-60
2023/06/02 08:18:26;;;;;;;5.50;5.00;;;;;;;22.10;100.00;96114.13;5011506;28;103113;-60
2023/06/02 08:20:52;;;;;;;5.97;5.20;;;;;;;22.58;98.39;96115.22;5012545;28;102653;-60
2023/06/02 08:23:19;;;;;;;5.23;4.73;;;;;;;22.76;100.00;96108.50;5005237;28;103098;-60
2023/06/02 08:25:46;;;;;;;5.97;5.03;;;;;;;23.15;90.07;96109.84;4994428;28;105004;-60
2023/06/02 08:28:13;;;;;;;5.60;5.00;;;;;;;23.36;90.00;96105.94;4992866;28;101990;-60
2023/06/02 08:30:44;;;;;;;6.03;5.30;;;;;;;22.76;91.32;96110.41;4991370;28;105579;-60
2023/06/02 08:33:14;;;;;;;6.73;5.07;;;;;;;22.68;96.34;96106.63;4992271;28;102685;-60
2023/06/02 08:35:40;;;;;;;5.87;4.83;;;;;;;22.35;94.14;96105.78;4974686;28;101890;-60
2023/06/02 08:38:08;;;;;;;5.13;4.63;;;;;;;22.95;99.09;96099.84;4991323;28;103853;-60
2023/06/02 08:40:37;;;;;;;7.27;5.07;;;;;;;22.61;95.83;96102.91;4990631;28;105776;-60
2023/06/02 08:43:06;;;;;;;5.00;4.50;;;;;;;22.60;97.33;96106.72;4991420;28;101928;-61
2023/06/02 08:45:33;;;;;;;5.50;4.83;;;;;;;22.71;98.00;96105.19;4995113;28;102602;-60
2023/06/02 08:48:03;;;;;;;6.37;4.87;;;;;;;23.00;94.72;96110.50;4991319;28;101888;-60
2023/06/02 08:50:34;;;;;;;6.03;4.40;;;;;;;23.01;83.05;96112.88;4991199;28;103817;-60
2023/06/02 08:53:04;;;;;;;7.37;5.20;;;;;;;23.05;90.46;96108.34;4990427;28;104034;-60
2023/06/02 08:55:32;;;;;;;8.67;5.23;;;;;;;23.21;97.94;96105.81;4991101;28;102336;-60
2023/06/02 08:57:59;;;;;;;5.23;4.73;;;;;;;23.44;91.22;96109.69;4991052;28;105143;-61
2023/06/02 09:00:26;;;;;;;5.97;5.03;;;;;;;23.67;78.35;96108.09;4991783;28;102811;-60
2023/06/02 09:02:53;;;;;;;8.67;4.97;;;;;;;24.19;90.05;96111.72;4990881;28;102017;-60
2023/06/02 09:05:22;;;;;;;6.60;4.97;;;;;;;24.36;83.43;96104.06;4990689;28;104814;-60
2023/06/02 09:08:08;;;;;;;5.27;4.73;;;;;;;24.11;79.81;96104.47;4993869;28;105683;-60
2023/06/02 09:10:39;;;;;;;4.53;4.10;;;;;;;24.24;90.28;96114.19;4990633;28;105353;-60
2023/06/02 09:13:07;;;;;;;5.40;4.90;;;;;;;24.51;70.30;96113.41;4990409;28;105160;-61
2023/06/02 09:15:35;;;;;;;7.70;4.47;;;;;;;24.24;73.13;96117.69;4991913;28;101767;-60
2023/06/02 09:18:12;;;;;;;6.97;4.80;;;;;;;24.40;67.16;96109.59;4990510;28;104811;-60
2023/06/02 09:20:41;;;;;;;5.63;4.50;;;;;;;24.07;69.38;96114.41;4991282;28;102963;-60
2023/06/02 09:23:10;;;;;;;6.57;4.57;;;;;;;24.15;64.34;96108.09;4992087;28;101779;-60
2023/06/02 09:25:40;;;;;;;4.67;3.60;;;;;;;24.65;66.72;96114.66;4991755;28;101743;-60
2023/06/02 09:28:09;;;;;;;4.57;3.80;;;;;;;24.33;61.51;96109.38;5008885;28;103813;-60
2023/06/02 09:30:36;;;;;;;6.43;4.43;;;;;;;24.88;62.77;96109.44;5012189;28;101949;-60
2023/06/02 09:33:08;;;;;;;5.40;3.77;;;;;;;24.86;64.61;96103.56;5009547;28;105312;-60
2023/06/02 09:35:37;;;;;;;4.40;3.93;;;;;;;25.13;61.91;96105.47;5011659;28;101736;-60
2023/06/02 09:38:07;;;;;;;4.83;4.40;;;;;;;24.46;63.91;96108.25;4993938;28;106330;-60
2023/06/02 09:40:35;;;;;;;5.10;3.77;;;;;;;24.66;65.76;96110.00;5009610;28;104003;-60
2023/06/02 09:43:04;;;;;;;4.03;3.60;;;;;;;25.17;53.86;96111.78;5011537;28;101881;-60
2023/06/02 09:45:32;;;;;;;4.37;3.43;;;;;;;24.61;55.86;96111.03;5010143;28;105228;-60
2023/06/02 09:48:00;;;;;;;5.03;3.43;;;;;;;25.50;62.23;96110.31;5011106;28;101920;-60
2023/06/02 09:50:37;;;;;;;5.10;3.73;;;;;;;26.19;58.09;96117.81;5010030;28;102161;-61
2023/06/02 09:53:06;;;;;;;4.53;3.60;;;;;;;26.66;53.42;96113.81;5014458;28;101821;-61
2023/06/02 09:55:39;;;;;;;4.87;3.27;;;;;;;27.08;52.19;96114.63;5010877;28;102285;-60
2023/06/02 09:58:07;;;;;;;5.00;3.10;;;;;;;27.41;47.81;96109.41;5010037;28;105627;-60
2023/06/02 10:00:35;;;;;;;5.00;3.00;;;;;;;26.96;47.73;96109.34;5009186;28;104246;-60
2023/06/02 10:03:02;;;;;;;3.37;2.77;;;;;;;27.05;44.86;96103.66;5010072;28;102127;-60
2023/06/02 10:05:30;;;;;;;4.00;2.90;;;;;;;27.14;44.88;96102.25;5009684;28;102546;-60
2023/06/02 10:08:08;;;;;;;5.43;2.47;;;;;;;27.67;42.54;96103.22;5009154;28;105477;-60
2023/06/02 10:11:02;;;;;;;2.93;2.30;;;;;;;28.00;44.93;96095.19;5009460;28;102628;-60
2023/06/02 10:13:48;;;;;;;3.87;2.67;;;;;;;26.02;42.52;96094.50;5010267;28;102328;-61
2023/06/02 10:16:32;;;;;;;2.80;2.50;;;;;;;26.76;45.57;96091.41;5012763;28;103749;-60
2023/06/02 10:19:38;;;;;;;4.30;2.40;;;;;;;26.51;39.36;96089.28;5011120;28;102339;-60
2023/06/02 10:22:38;;;;;;;3.03;2.60;;;;;;;25.91;40.82;96095.38;5010747;28;103014;-60
2023/06/02 10:25:16;;;;;;;5.07;2.60;;;;;;;26.00;40.21;96091.31;5011209;28;101814;-60
2023/06/02 10:27:48;;;;;;;2.70;2.23;;;;;;;26.47;40.98;96094.69;5010949;28;102865;-60
2023/06/02 10:30:20;;;;;;;3.07;2.47;;;;;;;27.35;39.65;96088.25;5010342;28;102731;-60
2023/06/02 10:32:48;;;;;;;2.37;2.17;;;;;;;27.91;38.22;96091.91;5009257;28;102174;-60
2023/06/02 10:35:18;;;;;;;2.87;2.67;;;;;;;27.61;40.38;96082.81;5009251;28;105458;-60
2023/06/02 10:37:45;;;;;;;7.20;2.90;;;;;;;26.06;39.25;96089.13;5009739;28;102630;-60
2023/06/02 10:40:14;;;;;;;2.87;2.50;;;;;;;27.12;42.60;96079.19;5014201;28;101658;-60
2023/06/02 10:45:48;;;;;;;4.43;2.57;;;;;;;28.07;40.05;96065.97;5029482;28;102127;-60
2023/06/02 10:48:36;;;;;;;5.30;2.90;;;;;;;26.94;37.77;96070.72;5025318;27;103049;-60
2023/06/02 10:51:03;;;;;;;4.03;2.50;;;;;;;26.75;37.21;96072.69;5025698;27;101910;-60
2023/06/02 10:53:30;;;;;;;3.07;2.57;;;;;;;26.96;38.34;96073.84;5026002;27;103801;-60
2023/06/02 10:55:57;;;;;;;2.60;2.37;;;;;;;27.80;38.56;96066.38;5025957;27;102553;-60
2023/06/02 10:58:48;;;;;;;2.60;2.40;;;;;;;28.10;38.59;96061.72;5025843;27;101912;-60
2023/06/02 11:01:48;;;;;;;2.85;2.33;;;;;;;28.42;37.21;96060.22;5026170;27;102893;-60
2023/06/02 11:04:28;;;;;;;3.03;2.72;;;;;;;27.99;34.08;96055.31;5024430;28;105022;-60
2023/06/02 11:07:29;;;;;;;3.75;2.72;;;;;;;27.81;34.96;96055.06;5028804;28;101794;-60
2023/06/02 11:10:00;;;;;;;4.50;2.40;;;;;;;27.74;36.26;96054.16;5025900;27;102714;-60
2023/06/02 11:13:03;;;;;;;3.83;2.35;;;;;;;26.60;36.49;96057.19;5024805;28;102573;-60
2023/06/02 11:15:30;;;;;;;3.07;2.77;;;;;;;26.51;37.07;96062.03;5025741;27;102971;-60
2023/06/02 11:17:59;;;;;;;7.50;2.63;;;;;;;27.39;38.68;96059.03;5025634;27;102478;-61
2023/06/02 11:20:34;;;;;;;5.23;2.60;;;;;;;27.05;36.81;96059.97;5025556;27;102251;-62
2023/06/02 11:23:05;;;;;;;3.60;2.50;;;;;;;27.76;35.98;96047.16;5026136;27;102291;-63
2023/06/02 11:25:33;;;;;;;6.18;2.90;;;;;;;27.17;35.15;96057.09;5025272;27;101928;-61
2023/06/02 11:28:00;;;;;;;4.35;2.42;;;;;;;26.68;38.59;96050.69;5024366;28;101864;-60
2023/06/02 11:30:27;;;;;;;2.60;2.40;;;;;;;26.99;36.82;96045.84;5008499;28;101694;-60
2023/06/02 11:32:54;;;;;;;2.63;2.42;;;;;;;27.40;35.70;96044.25;5020796;28;101849;-61